sensor_id;sensor_type;location;lat;lon;timestamp;P1;durP1;ratioP1;P2;durP2;ratioP2
68438;SDS011;55421;51.600;5.718;2023-04-03T00:01:07;7.40;;;5.50;;
68438;SDS011;55421;51.600;5.718;2023-04-03T00:03:34;8.10;;;4.70;;
68438;SDS011;55421;51.600;5.718;2023-04-03T00:06:01;9.40;;;5.10;;
68438;SDS011;55421;51.600;5.718;2023-04-03T00:08:27;5.80;;;4.50;;
68438;SDS011;55421;51.600;5.718;2023-04-03T00:10:57;6.30;;;4.10;;
68438;SDS011;55421;51.600;5.718;2023-04-03T00:13:24;12.70;;;5.10;;
68438;SDS011;55421;51.600;5.718;2023-04-03T00:15:52;8.70;;;5.80;;
68438;SDS011;55421;51.600;5.718;2023-04-03T00:18:19;9.00;;;6.00;;
68438;SDS011;55421;51.600;5.718;2023-04-03T00:20:47;7.90;;;5.30;;
68438;SDS011;55421;51.600;5.718;2023-04-03T00:23:14;10.80;;;6.40;;
68438;SDS011;55421;51.600;5.718;2023-04-03T00:25:42;9.70;;;5.30;;
68438;SDS011;55421;51.600;5.718;2023-04-03T00:28:09;7.50;;;5.10;;
68438;SDS011;55421;51.600;5.718;2023-04-03T00:30:36;9.60;;;5.30;;
68438;SDS011;55421;51.600;5.718;2023-04-03T00:33:02;9.70;;;5.40;;
68438;SDS011;55421;51.600;5.718;2023-04-03T00:35:29;6.70;;;4.80;;
68438;SDS011;55421;51.600;5.718;2023-04-03T00:37:56;9.90;;;6.10;;
68438;SDS011;55421;51.600;5.718;2023-04-03T00:40:24;6.50;;;4.80;;
68438;SDS011;55421;51.600;5.718;2023-04-03T00:42:57;9.10;;;5.30;;
68438;SDS011;55421;51.600;5.718;2023-04-03T00:48:24;7.30;;;5.20;;
68438;SDS011;55421;51.600;5.718;2023-04-03T00:50:55;8.10;;;5.50;;
68438;SDS011;55421;51.600;5.718;2023-04-03T00:53:46;10.20;;;6.50;;
68438;SDS011;55421;51.600;5.718;2023-04-03T00:56:19;10.50;;;6.20;;
68438;SDS011;55421;51.600;5.718;2023-04-03T00:59:02;11.20;;;5.50;;
68438;SDS011;55421;51.600;5.718;2023-04-03T01:01:32;10.60;;;5.60;;
68438;SDS011;55421;51.600;5.718;2023-04-03T01:04:00;8.70;;;5.10;;
68438;SDS011;55421;51.600;5.718;2023-04-03T01:06:35;12.20;;;5.80;;
68438;SDS011;55421;51.600;5.718;2023-04-03T01:09:04;8.60;;;5.40;;
68438;SDS011;55421;51.600;5.718;2023-04-03T01:11:31;8.30;;;6.30;;
68438;SDS011;55421;51.600;5.718;2023-04-03T01:13:58;10.50;;;6.40;;
68438;SDS011;55421;51.600;5.718;2023-04-03T01:16:24;8.60;;;5.40;;
68438;SDS011;55421;51.600;5.718;2023-04-03T01:18:51;9.00;;;5.40;;
68438;SDS011;55421;51.600;5.718;2023-04-03T01:21:36;10.60;;;5.60;;
68438;SDS011;55421;51.600;5.718;2023-04-03T01:24:37;8.00;;;5.10;;
68438;SDS011;55421;51.600;5.718;2023-04-03T01:27:06;9.40;;;5.30;;
68438;SDS011;55421;51.600;5.718;2023-04-03T01:29:37;6.90;;;4.60;;
68438;SDS011;55421;51.600;5.718;2023-04-03T01:32:04;8.20;;;5.40;;
68438;SDS011;55421;51.600;5.718;2023-04-03T01:34:31;8.20;;;5.70;;
68438;SDS011;55421;51.600;5.718;2023-04-03T01:36:58;11.10;;;4.80;;
68438;SDS011;55421;51.600;5.718;2023-04-03T01:39:25;8.50;;;5.10;;
68438;SDS011;55421;51.600;5.718;2023-04-03T01:41:51;11.20;;;4.80;;
68438;SDS011;55421;51.600;5.718;2023-04-03T01:44:18;9.00;;;5.00;;
68438;SDS011;55421;51.600;5.718;2023-04-03T01:46:45;5.70;;;4.30;;
68438;SDS011;55421;51.600;5.718;2023-04-03T01:49:11;6.50;;;4.60;;
68438;SDS011;55421;51.600;5.718;2023-04-03T01:51:38;7.00;;;4.60;;
68438;SDS011;55421;51.600;5.718;2023-04-03T01:54:04;7.70;;;5.10;;
68438;SDS011;55421;51.600;5.718;2023-04-03T01:56:31;7.70;;;4.40;;
68438;SDS011;55421;51.600;5.718;2023-04-03T01:58:57;10.00;;;4.70;;
68438;SDS011;55421;51.600;5.718;2023-04-03T02:01:24;5.80;;;3.60;;
68438;SDS011;55421;51.600;5.718;2023-04-03T02:03:52;4.60;;;3.50;;
68438;SDS011;55421;51.600;5.718;2023-04-03T02:06:19;5.90;;;3.80;;
68438;SDS011;55421;51.600;5.718;2023-04-03T02:08:45;4.90;;;3.90;;
68438;SDS011;55421;51.600;5.718;2023-04-03T02:11:12;7.30;;;4.50;;
68438;SDS011;55421;51.600;5.718;2023-04-03T02:13:38;4.70;;;3.40;;
68438;SDS011;55421;51.600;5.718;2023-04-03T02:16:09;8.00;;;3.80;;
68438;SDS011;55421;51.600;5.718;2023-04-03T02:18:37;6.00;;;3.30;;
68438;SDS011;55421;51.600;5.718;2023-04-03T02:21:04;3.50;;;3.00;;
68438;SDS011;55421;51.600;5.718;2023-04-03T02:23:31;7.40;;;3.60;;
68438;SDS011;55421;51.600;5.718;2023-04-03T02:26:09;4.60;;;3.50;;
68438;SDS011;55421;51.600;5.718;2023-04-03T02:28:38;7.10;;;3.60;;
68438;SDS011;55421;51.600;5.718;2023-04-03T02:31:05;6.80;;;3.50;;
68438;SDS011;55421;51.600;5.718;2023-04-03T02:33:35;8.80;;;3.50;;
68438;SDS011;55421;51.600;5.718;2023-04-03T02:36:06;4.50;;;3.00;;
68438;SDS011;55421;51.600;5.718;2023-04-03T02:38:34;4.70;;;3.00;;
68438;SDS011;55421;51.600;5.718;2023-04-03T02:41:06;4.00;;;2.90;;
68438;SDS011;55421;51.600;5.718;2023-04-03T02:43:34;7.30;;;3.50;;
68438;SDS011;55421;51.600;5.718;2023-04-03T02:46:01;4.90;;;3.20;;
68438;SDS011;55421;51.600;5.718;2023-04-03T02:48:27;9.00;;;3.90;;
68438;SDS011;55421;51.600;5.718;2023-04-03T02:50:54;4.60;;;3.20;;
68438;SDS011;55421;51.600;5.718;2023-04-03T02:53:21;4.70;;;2.90;;
68438;SDS011;55421;51.600;5.718;2023-04-03T02:55:49;5.70;;;3.30;;
68438;SDS011;55421;51.600;5.718;2023-04-03T02:58:16;4.90;;;3.10;;
68438;SDS011;55421;51.600;5.718;2023-04-03T03:00:42;5.50;;;3.10;;
68438;SDS011;55421;51.600;5.718;2023-04-03T03:05:39;5.10;;;2.80;;
68438;SDS011;55421;51.600;5.718;2023-04-03T03:08:06;6.60;;;3.50;;
68438;SDS011;55421;51.600;5.718;2023-04-03T03:10:32;6.90;;;2.90;;
68438;SDS011;55421;51.600;5.718;2023-04-03T03:12:58;3.20;;;2.70;;
68438;SDS011;55421;51.600;5.718;2023-04-03T03:15:25;5.50;;;3.30;;
68438;SDS011;55421;51.600;5.718;2023-04-03T03:17:53;5.90;;;3.00;;
68438;SDS011;55421;51.600;5.718;2023-04-03T03:20:20;4.70;;;2.70;;
68438;SDS011;55421;51.600;5.718;2023-04-03T03:22:47;7.70;;;2.60;;
68438;SDS011;55421;51.600;5.718;2023-04-03T03:25:13;4.10;;;3.00;;
68438;SDS011;55421;51.600;5.718;2023-04-03T03:27:40;4.50;;;2.70;;
68438;SDS011;55421;51.600;5.718;2023-04-03T03:30:07;7.20;;;2.70;;
68438;SDS011;55421;51.600;5.718;2023-04-03T03:32:34;6.80;;;2.90;;
68438;SDS011;55421;51.600;5.718;2023-04-03T03:35:00;7.90;;;2.70;;
68438;SDS011;55421;51.600;5.718;2023-04-03T03:37:26;6.00;;;2.80;;
68438;SDS011;55421;51.600;5.718;2023-04-03T03:39:53;4.20;;;3.00;;
68438;SDS011;55421;51.600;5.718;2023-04-03T03:42:20;9.50;;;3.30;;
68438;SDS011;55421;51.600;5.718;2023-04-03T03:44:46;8.20;;;3.00;;
68438;SDS011;55421;51.600;5.718;2023-04-03T03:47:13;3.40;;;2.70;;
68438;SDS011;55421;51.600;5.718;2023-04-03T03:49:39;4.10;;;2.60;;
68438;SDS011;55421;51.600;5.718;2023-04-03T03:52:07;7.10;;;2.80;;
68438;SDS011;55421;51.600;5.718;2023-04-03T03:54:37;4.80;;;3.40;;
68438;SDS011;55421;51.600;5.718;2023-04-03T03:57:04;4.80;;;2.90;;
68438;SDS011;55421;51.600;5.718;2023-04-03T03:59:31;7.60;;;2.80;;
68438;SDS011;55421;51.600;5.718;2023-04-03T04:01:57;7.90;;;2.70;;
68438;SDS011;55421;51.600;5.718;2023-04-03T04:04:24;4.40;;;2.70;;
68438;SDS011;55421;51.600;5.718;2023-04-03T04:06:50;5.50;;;2.80;;
68438;SDS011;55421;51.600;5.718;2023-04-03T04:09:17;5.00;;;2.80;;
68438;SDS011;55421;51.600;5.718;2023-04-03T04:11:44;6.80;;;2.60;;
68438;SDS011;55421;51.600;5.718;2023-04-03T04:14:11;5.60;;;2.40;;
68438;SDS011;55421;51.600;5.718;2023-04-03T04:16:39;6.20;;;2.70;;
68438;SDS011;55421;51.600;5.718;2023-04-03T04:19:06;7.60;;;2.50;;
68438;SDS011;55421;51.600;5.718;2023-04-03T04:21:32;4.70;;;2.50;;
68438;SDS011;55421;51.600;5.718;2023-04-03T04:23:58;3.80;;;2.40;;
68438;SDS011;55421;51.600;5.718;2023-04-03T04:26:25;3.40;;;2.50;;
68438;SDS011;55421;51.600;5.718;2023-04-03T04:28:52;4.90;;;2.60;;
68438;SDS011;55421;51.600;5.718;2023-04-03T04:31:18;3.10;;;2.70;;
68438;SDS011;55421;51.600;5.718;2023-04-03T04:33:45;5.70;;;2.90;;
68438;SDS011;55421;51.600;5.718;2023-04-03T04:36:11;7.60;;;2.90;;
68438;SDS011;55421;51.600;5.718;2023-04-03T04:38:38;6.20;;;2.50;;
68438;SDS011;55421;51.600;5.718;2023-04-03T04:41:04;3.50;;;2.30;;
68438;SDS011;55421;51.600;5.718;2023-04-03T04:43:31;6.90;;;2.40;;
68438;SDS011;55421;51.600;5.718;2023-04-03T04:46:08;3.80;;;2.10;;
68438;SDS011;55421;51.600;5.718;2023-04-03T04:48:38;6.20;;;2.50;;
68438;SDS011;55421;51.600;5.718;2023-04-03T04:51:06;5.00;;;2.30;;
68438;SDS011;55421;51.600;5.718;2023-04-03T04:53:33;6.00;;;2.70;;
68438;SDS011;55421;51.600;5.718;2023-04-03T04:56:00;6.60;;;2.30;;
68438;SDS011;55421;51.600;5.718;2023-04-03T04:58:26;3.50;;;2.20;;
68438;SDS011;55421;51.600;5.718;2023-04-03T05:01:07;6.20;;;2.60;;
68438;SDS011;55421;51.600;5.718;2023-04-03T05:03:35;4.80;;;2.40;;
68438;SDS011;55421;51.600;5.718;2023-04-03T05:06:02;5.80;;;2.50;;
68438;SDS011;55421;51.600;5.718;2023-04-03T05:08:29;4.50;;;2.60;;
68438;SDS011;55421;51.600;5.718;2023-04-03T05:10:56;5.90;;;2.40;;
68438;SDS011;55421;51.600;5.718;2023-04-03T05:13:22;3.80;;;2.10;;
68438;SDS011;55421;51.600;5.718;2023-04-03T05:15:49;2.80;;;2.10;;
68438;SDS011;55421;51.600;5.718;2023-04-03T05:18:15;5.80;;;2.20;;
68438;SDS011;55421;51.600;5.718;2023-04-03T05:20:42;5.70;;;2.20;;
68438;SDS011;55421;51.600;5.718;2023-04-03T05:23:10;7.30;;;2.20;;
68438;SDS011;55421;51.600;5.718;2023-04-03T05:25:38;3.60;;;2.10;;
68438;SDS011;55421;51.600;5.718;2023-04-03T05:28:06;4.80;;;2.20;;
68438;SDS011;55421;51.600;5.718;2023-04-03T05:30:33;4.50;;;2.30;;
68438;SDS011;55421;51.600;5.718;2023-04-03T05:32:59;7.10;;;2.30;;
68438;SDS011;55421;51.600;5.718;2023-04-03T05:35:26;3.20;;;1.80;;
68438;SDS011;55421;51.600;5.718;2023-04-03T05:37:52;4.80;;;2.20;;
68438;SDS011;55421;51.600;5.718;2023-04-03T05:40:19;3.80;;;2.10;;
68438;SDS011;55421;51.600;5.718;2023-04-03T05:42:46;6.20;;;2.10;;
68438;SDS011;55421;51.600;5.718;2023-04-03T05:45:12;4.40;;;2.10;;
68438;SDS011;55421;51.600;5.718;2023-04-03T05:47:39;5.20;;;2.00;;
68438;SDS011;55421;51.600;5.718;2023-04-03T05:50:06;3.80;;;2.00;;
68438;SDS011;55421;51.600;5.718;2023-04-03T05:52:35;5.10;;;2.50;;
68438;SDS011;55421;51.600;5.718;2023-04-03T05:57:31;3.10;;;2.10;;
68438;SDS011;55421;51.600;5.718;2023-04-03T05:59:57;4.00;;;2.00;;
68438;SDS011;55421;51.600;5.718;2023-04-03T06:02:24;4.30;;;2.00;;
68438;SDS011;55421;51.600;5.718;2023-04-03T06:04:52;4.00;;;2.10;;
68438;SDS011;55421;51.600;5.718;2023-04-03T06:07:24;5.70;;;2.70;;
68438;SDS011;55421;51.600;5.718;2023-04-03T06:09:55;4.90;;;2.10;;
68438;SDS011;55421;51.600;5.718;2023-04-03T06:12:23;3.90;;;2.40;;
68438;SDS011;55421;51.600;5.718;2023-04-03T06:14:50;3.80;;;2.20;;
68438;SDS011;55421;51.600;5.718;2023-04-03T06:17:17;6.90;;;2.10;;
68438;SDS011;55421;51.600;5.718;2023-04-03T06:19:44;3.70;;;2.20;;
68438;SDS011;55421;51.600;5.718;2023-04-03T06:22:11;6.50;;;2.50;;
68438;SDS011;55421;51.600;5.718;2023-04-03T06:24:38;4.70;;;2.30;;
68438;SDS011;55421;51.600;5.718;2023-04-03T06:27:05;6.90;;;2.20;;
68438;SDS011;55421;51.600;5.718;2023-04-03T06:29:32;2.90;;;1.90;;
68438;SDS011;55421;51.600;5.718;2023-04-03T06:31:58;5.20;;;2.50;;
68438;SDS011;55421;51.600;5.718;2023-04-03T06:34:25;7.20;;;2.80;;
68438;SDS011;55421;51.600;5.718;2023-04-03T06:36:51;5.60;;;2.10;;
68438;SDS011;55421;51.600;5.718;2023-04-03T06:39:20;4.30;;;2.10;;
68438;SDS011;55421;51.600;5.718;2023-04-03T06:41:49;4.50;;;2.10;;
68438;SDS011;55421;51.600;5.718;2023-04-03T06:44:17;3.60;;;1.90;;
68438;SDS011;55421;51.600;5.718;2023-04-03T06:46:44;6.90;;;2.10;;
68438;SDS011;55421;51.600;5.718;2023-04-03T06:49:12;8.20;;;2.20;;
68438;SDS011;55421;51.600;5.718;2023-04-03T06:51:39;5.70;;;2.60;;
68438;SDS011;55421;51.600;5.718;2023-04-03T06:54:06;4.30;;;2.40;;
68438;SDS011;55421;51.600;5.718;2023-04-03T06:56:34;4.10;;;2.10;;
68438;SDS011;55421;51.600;5.718;2023-04-03T06:59:01;4.40;;;2.00;;
68438;SDS011;55421;51.600;5.718;2023-04-03T07:01:29;5.20;;;2.00;;
68438;SDS011;55421;51.600;5.718;2023-04-03T07:03:57;2.70;;;2.00;;
68438;SDS011;55421;51.600;5.718;2023-04-03T07:06:24;4.20;;;1.90;;
68438;SDS011;55421;51.600;5.718;2023-04-03T07:08:53;4.10;;;2.10;;
68438;SDS011;55421;51.600;5.718;2023-04-03T07:11:20;2.30;;;1.60;;
68438;SDS011;55421;51.600;5.718;2023-04-03T07:13:47;4.20;;;2.20;;
68438;SDS011;55421;51.600;5.718;2023-04-03T07:16:14;4.90;;;2.10;;
68438;SDS011;55421;51.600;5.718;2023-04-03T07:18:41;3.20;;;2.10;;
68438;SDS011;55421;51.600;5.718;2023-04-03T07:21:07;4.50;;;2.10;;
68438;SDS011;55421;51.600;5.718;2023-04-03T07:23:34;3.90;;;2.00;;
68438;SDS011;55421;51.600;5.718;2023-04-03T07:26:00;5.30;;;2.10;;
68438;SDS011;55421;51.600;5.718;2023-04-03T07:28:27;4.90;;;2.00;;
68438;SDS011;55421;51.600;5.718;2023-04-03T07:31:05;3.10;;;1.90;;
68438;SDS011;55421;51.600;5.718;2023-04-03T07:33:34;3.90;;;1.80;;
68438;SDS011;55421;51.600;5.718;2023-04-03T07:36:01;3.80;;;1.80;;
68438;SDS011;55421;51.600;5.718;2023-04-03T07:38:28;7.10;;;2.30;;
68438;SDS011;55421;51.600;5.718;2023-04-03T07:40:55;8.00;;;2.10;;
68438;SDS011;55421;51.600;5.718;2023-04-03T07:43:22;6.70;;;2.30;;
68438;SDS011;55421;51.600;5.718;2023-04-03T07:45:51;4.00;;;1.80;;
68438;SDS011;55421;51.600;5.718;2023-04-03T07:48:19;5.40;;;1.70;;
68438;SDS011;55421;51.600;5.718;2023-04-03T07:50:47;4.00;;;1.60;;
68438;SDS011;55421;51.600;5.718;2023-04-03T07:53:14;4.20;;;1.90;;
68438;SDS011;55421;51.600;5.718;2023-04-03T07:55:41;3.50;;;1.70;;
68438;SDS011;55421;51.600;5.718;2023-04-03T07:58:12;5.40;;;2.20;;
68438;SDS011;55421;51.600;5.718;2023-04-03T08:00:40;3.90;;;1.90;;
68438;SDS011;55421;51.600;5.718;2023-04-03T08:03:09;5.40;;;1.90;;
68438;SDS011;55421;51.600;5.718;2023-04-03T08:05:39;6.10;;;2.30;;
68438;SDS011;55421;51.600;5.718;2023-04-03T08:08:08;5.50;;;2.40;;
68438;SDS011;55421;51.600;5.718;2023-04-03T08:10:36;5.50;;;2.00;;
68438;SDS011;55421;51.600;5.718;2023-04-03T08:13:03;5.10;;;1.80;;
68438;SDS011;55421;51.600;5.718;2023-04-03T08:15:30;5.80;;;1.70;;
68438;SDS011;55421;51.600;5.718;2023-04-03T08:17:58;3.30;;;1.80;;
68438;SDS011;55421;51.600;5.718;2023-04-03T08:20:26;7.50;;;2.20;;
68438;SDS011;55421;51.600;5.718;2023-04-03T08:22:53;5.60;;;2.10;;
68438;SDS011;55421;51.600;5.718;2023-04-03T08:25:20;2.40;;;1.70;;
68438;SDS011;55421;51.600;5.718;2023-04-03T08:27:46;3.30;;;1.70;;
68438;SDS011;55421;51.600;5.718;2023-04-03T08:30:13;5.10;;;2.10;;
68438;SDS011;55421;51.600;5.718;2023-04-03T08:32:40;4.20;;;1.70;;
68438;SDS011;55421;51.600;5.718;2023-04-03T08:35:09;4.40;;;1.80;;
68438;SDS011;55421;51.600;5.718;2023-04-03T08:37:37;3.10;;;1.50;;
68438;SDS011;55421;51.600;5.718;2023-04-03T08:40:07;5.70;;;2.00;;
68438;SDS011;55421;51.600;5.718;2023-04-03T08:45:45;4.30;;;1.70;;
68438;SDS011;55421;51.600;5.718;2023-04-03T08:48:27;3.40;;;1.50;;
68438;SDS011;55421;51.600;5.718;2023-04-03T08:50:59;3.50;;;1.40;;
68438;SDS011;55421;51.600;5.718;2023-04-03T08:53:33;1.60;;;1.30;;
68438;SDS011;55421;51.600;5.718;2023-04-03T08:56:05;2.30;;;1.20;;
68438;SDS011;55421;51.600;5.718;2023-04-03T08:58:56;2.40;;;1.10;;
68438;SDS011;55421;51.600;5.718;2023-04-03T09:01:32;2.20;;;1.30;;
68438;SDS011;55421;51.600;5.718;2023-04-03T09:04:02;2.20;;;1.30;;
68438;SDS011;55421;51.600;5.718;2023-04-03T09:06:38;3.60;;;1.40;;
68438;SDS011;55421;51.600;5.718;2023-04-03T09:12:04;2.20;;;1.20;;
68438;SDS011;55421;51.600;5.718;2023-04-03T09:17:41;3.80;;;1.30;;
68438;SDS011;55421;51.600;5.718;2023-04-03T09:22:52;2.80;;;1.30;;
68438;SDS011;55421;51.600;5.718;2023-04-03T09:25:25;1.30;;;1.10;;
68438;SDS011;55421;51.600;5.718;2023-04-03T09:27:56;4.30;;;1.00;;
68438;SDS011;55421;51.600;5.718;2023-04-03T09:30:25;1.70;;;1.00;;
68438;SDS011;55421;51.600;5.718;2023-04-03T09:32:56;3.10;;;1.20;;
68438;SDS011;55421;51.600;5.718;2023-04-03T09:37:58;0.80;;;0.70;;
68438;SDS011;55421;51.600;5.718;2023-04-03T09:42:55;2.00;;;0.90;;
68438;SDS011;55421;51.600;5.718;2023-04-03T09:45:30;2.80;;;0.80;;
68438;SDS011;55421;51.600;5.718;2023-04-03T09:50:54;1.50;;;0.90;;
68438;SDS011;55421;51.600;5.718;2023-04-03T09:53:31;0.70;;;0.70;;
68438;SDS011;55421;51.600;5.718;2023-04-03T10:01:28;1.40;;;0.90;;
68438;SDS011;55421;51.600;5.718;2023-04-03T10:09:30;0.60;;;0.50;;
68438;SDS011;55421;51.600;5.718;2023-04-03T10:12:09;1.30;;;0.70;;
68438;SDS011;55421;51.600;5.718;2023-04-03T10:14:40;1.10;;;0.40;;
68438;SDS011;55421;51.600;5.718;2023-04-03T10:20:40;0.40;;;0.40;;
68438;SDS011;55421;51.600;5.718;2023-04-03T10:23:24;0.90;;;0.60;;
68438;SDS011;55421;51.600;5.718;2023-04-03T10:26:28;0.70;;;0.60;;
68438;SDS011;55421;51.600;5.718;2023-04-03T10:29:16;0.60;;;0.60;;
68438;SDS011;55421;51.600;5.718;2023-04-03T10:32:26;2.20;;;0.70;;
68438;SDS011;55421;51.600;5.718;2023-04-03T10:41:28;1.00;;;0.70;;
68438;SDS011;55421;51.600;5.718;2023-04-03T10:50:29;1.60;;;0.70;;
68438;SDS011;55421;51.600;5.718;2023-04-03T10:53:24;0.80;;;0.60;;
68438;SDS011;55421;51.600;5.718;2023-04-03T10:56:17;2.20;;;0.90;;
68438;SDS011;55421;51.600;5.718;2023-04-03T10:59:02;1.00;;;0.80;;
68438;SDS011;55421;51.600;5.718;2023-04-03T11:01:41;2.00;;;0.60;;
68438;SDS011;55421;51.600;5.718;2023-04-03T11:04:10;0.90;;;0.60;;
68438;SDS011;55421;51.600;5.718;2023-04-03T11:06:48;2.60;;;0.80;;
68438;SDS011;55421;51.600;5.718;2023-04-03T11:09:27;1.10;;;0.60;;
68438;SDS011;55421;51.600;5.718;2023-04-03T11:12:02;0.70;;;0.70;;
68438;SDS011;55421;51.600;5.718;2023-04-03T11:14:34;0.70;;;0.70;;
68438;SDS011;55421;51.600;5.718;2023-04-03T11:19:45;0.60;;;0.50;;
68438;SDS011;55421;51.600;5.718;2023-04-03T11:22:44;0.50;;;0.50;;
68438;SDS011;55421;51.600;5.718;2023-04-03T11:25:20;0.70;;;0.70;;
68438;SDS011;55421;51.600;5.718;2023-04-03T11:28:06;1.00;;;0.80;;
68438;SDS011;55421;51.600;5.718;2023-04-03T11:33:54;0.60;;;0.50;;
68438;SDS011;55421;51.600;5.718;2023-04-03T11:36:33;0.50;;;0.50;;
68438;SDS011;55421;51.600;5.718;2023-04-03T11:39:30;1.00;;;0.70;;
68438;SDS011;55421;51.600;5.718;2023-04-03T11:45:29;1.10;;;1.00;;
68438;SDS011;55421;51.600;5.718;2023-04-03T11:53:44;1.80;;;1.00;;
68438;SDS011;55421;51.600;5.718;2023-04-03T11:56:31;1.00;;;0.90;;
68438;SDS011;55421;51.600;5.718;2023-04-03T12:01:46;2.50;;;0.80;;
68438;SDS011;55421;51.600;5.718;2023-04-03T12:04:17;1.30;;;1.00;;
68438;SDS011;55421;51.600;5.718;2023-04-03T12:09:26;1.90;;;1.10;;
68438;SDS011;55421;51.600;5.718;2023-04-03T12:12:24;3.90;;;1.30;;
68438;SDS011;55421;51.600;5.718;2023-04-03T12:14:55;3.60;;;1.10;;
68438;SDS011;55421;51.600;5.718;2023-04-03T12:17:27;3.00;;;1.10;;
68438;SDS011;55421;51.600;5.718;2023-04-03T12:19:55;1.90;;;1.00;;
68438;SDS011;55421;51.600;5.718;2023-04-03T12:22:21;3.10;;;0.90;;
68438;SDS011;55421;51.600;5.718;2023-04-03T12:24:51;2.20;;;1.10;;
68438;SDS011;55421;51.600;5.718;2023-04-03T12:27:32;3.80;;;1.20;;
68438;SDS011;55421;51.600;5.718;2023-04-03T12:30:05;3.40;;;1.30;;
68438;SDS011;55421;51.600;5.718;2023-04-03T12:42:01;2.70;;;1.10;;
68438;SDS011;55421;51.600;5.718;2023-04-03T12:44:37;1.00;;;0.80;;
68438;SDS011;55421;51.600;5.718;2023-04-03T12:47:24;1.90;;;1.10;;
68438;SDS011;55421;51.600;5.718;2023-04-03T12:49:54;1.70;;;1.20;;
68438;SDS011;55421;51.600;5.718;2023-04-03T12:52:43;2.40;;;0.90;;
68438;SDS011;55421;51.600;5.718;2023-04-03T12:55:16;2.60;;;1.20;;
68438;SDS011;55421;51.600;5.718;2023-04-03T12:57:44;3.00;;;0.90;;
68438;SDS011;55421;51.600;5.718;2023-04-03T13:00:27;2.00;;;1.10;;
68438;SDS011;55421;51.600;5.718;2023-04-03T13:03:01;4.70;;;1.10;;
68438;SDS011;55421;51.600;5.718;2023-04-03T13:05:30;2.80;;;1.10;;
68438;SDS011;55421;51.600;5.718;2023-04-03T13:08:04;2.40;;;1.50;;
68438;SDS011;55421;51.600;5.718;2023-04-03T13:10:47;1.50;;;1.00;;
68438;SDS011;55421;51.600;5.718;2023-04-03T13:13:24;1.40;;;0.80;;
68438;SDS011;55421;51.600;5.718;2023-04-03T13:15:52;3.30;;;1.10;;
68438;SDS011;55421;51.600;5.718;2023-04-03T13:21:05;2.50;;;1.10;;
68438;SDS011;55421;51.600;5.718;2023-04-03T13:23:40;1.70;;;1.00;;
68438;SDS011;55421;51.600;5.718;2023-04-03T13:26:12;1.70;;;1.10;;
68438;SDS011;55421;51.600;5.718;2023-04-03T13:28:40;2.30;;;1.20;;
68438;SDS011;55421;51.600;5.718;2023-04-03T13:31:30;2.70;;;1.20;;
68438;SDS011;55421;51.600;5.718;2023-04-03T13:34:06;2.30;;;1.60;;
68438;SDS011;55421;51.600;5.718;2023-04-03T13:36:42;1.60;;;1.20;;
68438;SDS011;55421;51.600;5.718;2023-04-03T13:41:47;1.70;;;1.20;;
68438;SDS011;55421;51.600;5.718;2023-04-03T13:46:53;2.70;;;1.30;;
68438;SDS011;55421;51.600;5.718;2023-04-03T13:49:46;2.30;;;1.10;;
68438;SDS011;55421;51.600;5.718;2023-04-03T13:57:56;3.10;;;1.40;;
68438;SDS011;55421;51.600;5.718;2023-04-03T14:00:33;2.50;;;1.40;;
68438;SDS011;55421;51.600;5.718;2023-04-03T14:03:25;4.00;;;1.40;;
68438;SDS011;55421;51.600;5.718;2023-04-03T14:05:55;2.30;;;1.10;;
68438;SDS011;55421;51.600;5.718;2023-04-03T14:08:22;3.10;;;1.40;;
68438;SDS011;55421;51.600;5.718;2023-04-03T14:10:50;2.90;;;1.40;;
68438;SDS011;55421;51.600;5.718;2023-04-03T14:13:18;1.60;;;1.20;;
68438;SDS011;55421;51.600;5.718;2023-04-03T14:15:47;1.50;;;1.40;;
68438;SDS011;55421;51.600;5.718;2023-04-03T14:18:18;1.60;;;1.40;;
68438;SDS011;55421;51.600;5.718;2023-04-03T14:20:47;2.50;;;1.30;;
68438;SDS011;55421;51.600;5.718;2023-04-03T14:23:15;3.20;;;1.40;;
68438;SDS011;55421;51.600;5.718;2023-04-03T14:25:42;1.20;;;1.10;;
68438;SDS011;55421;51.600;5.718;2023-04-03T14:28:18;2.90;;;1.20;;
68438;SDS011;55421;51.600;5.718;2023-04-03T14:30:50;1.60;;;1.20;;
68438;SDS011;55421;51.600;5.718;2023-04-03T14:33:20;3.00;;;1.20;;
68438;SDS011;55421;51.600;5.718;2023-04-03T14:35:48;1.90;;;1.40;;
68438;SDS011;55421;51.600;5.718;2023-04-03T14:38:23;2.70;;;1.40;;
68438;SDS011;55421;51.600;5.718;2023-04-03T14:40:52;2.20;;;1.30;;
68438;SDS011;55421;51.600;5.718;2023-04-03T14:43:19;1.80;;;1.20;;
68438;SDS011;55421;51.600;5.718;2023-04-03T14:45:47;3.20;;;1.40;;
68438;SDS011;55421;51.600;5.718;2023-04-03T14:48:24;1.90;;;1.30;;
68438;SDS011;55421;51.600;5.718;2023-04-03T14:50:53;3.20;;;1.50;;
68438;SDS011;55421;51.600;5.718;2023-04-03T14:53:21;2.40;;;1.40;;
68438;SDS011;55421;51.600;5.718;2023-04-03T14:55:52;4.40;;;1.40;;
68438;SDS011;55421;51.600;5.718;2023-04-03T14:58:20;2.00;;;1.20;;
68438;SDS011;55421;51.600;5.718;2023-04-03T15:00:47;2.40;;;1.30;;
68438;SDS011;55421;51.600;5.718;2023-04-03T15:03:18;3.80;;;1.50;;
68438;SDS011;55421;51.600;5.718;2023-04-03T15:05:48;3.10;;;1.50;;
68438;SDS011;55421;51.600;5.718;2023-04-03T15:08:20;2.70;;;1.50;;
68438;SDS011;55421;51.600;5.718;2023-04-03T15:10:48;2.00;;;1.20;;
68438;SDS011;55421;51.600;5.718;2023-04-03T15:13:16;2.70;;;1.10;;
68438;SDS011;55421;51.600;5.718;2023-04-03T15:15:42;2.30;;;1.30;;
68438;SDS011;55421;51.600;5.718;2023-04-03T15:18:15;2.40;;;1.20;;
68438;SDS011;55421;51.600;5.718;2023-04-03T15:20:45;4.40;;;1.70;;
68438;SDS011;55421;51.600;5.718;2023-04-03T15:23:15;1.10;;;1.00;;
68438;SDS011;55421;51.600;5.718;2023-04-03T15:25:44;2.50;;;1.30;;
68438;SDS011;55421;51.600;5.718;2023-04-03T15:28:39;3.40;;;1.60;;
68438;SDS011;55421;51.600;5.718;2023-04-03T15:31:09;2.30;;;1.30;;
68438;SDS011;55421;51.600;5.718;2023-04-03T15:33:36;3.30;;;1.20;;
68438;SDS011;55421;51.600;5.718;2023-04-03T15:36:04;2.90;;;1.60;;
68438;SDS011;55421;51.600;5.718;2023-04-03T15:38:31;3.80;;;1.50;;
68438;SDS011;55421;51.600;5.718;2023-04-03T15:41:00;2.20;;;1.20;;
68438;SDS011;55421;51.600;5.718;2023-04-03T15:43:26;3.00;;;1.50;;
68438;SDS011;55421;51.600;5.718;2023-04-03T15:45:56;4.20;;;1.70;;
68438;SDS011;55421;51.600;5.718;2023-04-03T15:48:25;2.60;;;1.50;;
68438;SDS011;55421;51.600;5.718;2023-04-03T15:50:53;2.20;;;1.50;;
68438;SDS011;55421;51.600;5.718;2023-04-03T15:53:20;3.20;;;1.50;;
68438;SDS011;55421;51.600;5.718;2023-04-03T15:55:47;4.60;;;1.20;;
68438;SDS011;55421;51.600;5.718;2023-04-03T15:58:13;2.50;;;1.20;;
68438;SDS011;55421;51.600;5.718;2023-04-03T16:00:40;4.30;;;1.30;;
68438;SDS011;55421;51.600;5.718;2023-04-03T16:03:11;3.70;;;1.40;;
68438;SDS011;55421;51.600;5.718;2023-04-03T16:05:42;2.60;;;1.50;;
68438;SDS011;55421;51.600;5.718;2023-04-03T16:08:09;4.00;;;1.30;;
68438;SDS011;55421;51.600;5.718;2023-04-03T16:10:37;2.10;;;1.30;;
68438;SDS011;55421;51.600;5.718;2023-04-03T16:13:05;3.30;;;1.50;;
68438;SDS011;55421;51.600;5.718;2023-04-03T16:15:33;1.80;;;1.20;;
68438;SDS011;55421;51.600;5.718;2023-04-03T16:18:01;2.50;;;1.60;;
68438;SDS011;55421;51.600;5.718;2023-04-03T16:20:28;2.70;;;1.50;;
68438;SDS011;55421;51.600;5.718;2023-04-03T16:22:57;2.70;;;1.50;;
68438;SDS011;55421;51.600;5.718;2023-04-03T16:25:25;6.10;;;1.40;;
68438;SDS011;55421;51.600;5.718;2023-04-03T16:27:52;4.30;;;1.50;;
68438;SDS011;55421;51.600;5.718;2023-04-03T16:30:19;2.30;;;1.10;;
68438;SDS011;55421;51.600;5.718;2023-04-03T16:32:46;3.40;;;1.40;;
68438;SDS011;55421;51.600;5.718;2023-04-03T16:35:12;5.40;;;1.30;;
68438;SDS011;55421;51.600;5.718;2023-04-03T16:37:39;3.40;;;1.70;;
68438;SDS011;55421;51.600;5.718;2023-04-03T16:40:07;5.30;;;1.70;;
68438;SDS011;55421;51.600;5.718;2023-04-03T16:42:34;2.10;;;1.30;;
68438;SDS011;55421;51.600;5.718;2023-04-03T16:45:00;1.80;;;1.30;;